Impacts METAR Board INFO
IDs:

KPHL - Philadelphia Intl, PA, US

Updated at: 1225 UTC 22 Feb 2018
Potential Impact None Slight Moderate High
Time22/00Z 22/01Z 22/02Z 22/03Z 22/04Z 22/05Z 22/06Z 22/07Z 22/08Z 22/09Z 22/10Z 22/11Z 22/12Z
VIS10 10 10 10 10 10 10 10 10 10
CIG-- 38 33 37 38 39 40 44 44 34
CoverSCTOVCOVCOVCOVCOVCOVCOVCOVCOVC
FltCatVFRVFRVFRVFRVFRVFRVFRVFRVFRVFR
WX---RA----------------
WDir21010360360201010504040
WSpd11 13 11 12 12 11 12 13 12 11
WGst20 20 -- -- -- -- -- 18 -- --
Raw hourly METARs
KPHL 212354Z 21011G20KT 190V260 10SM FEW100 SCT160 22/16 A3028 RMK AO2 SLP253 T02170156 10250 20206 53012



KPHL 220354Z 01013G20KT 10SM -RA SCT031 BKN038 OVC050 16/13 A3037 RMK AO2 RAB16 SLP285 P0001 T01610128
KPHL 220454Z 36011KT 10SM BKN033 BKN045 OVC070 14/09 A3041 RMK AO2 RAE14 SLP298 P0000 T01440094 402500106
KPHL 220554Z 36012KT 10SM BKN037 BKN070 OVC110 14/08 A3043 RMK AO2 SLP303 60001 T01390078 10222 20139 51024
KPHL 220654Z 02012KT 10SM BKN038 BKN050 OVC070 13/03 A3045 RMK AO2 SLP310 T01330033
KPHL 220754Z 01011KT 10SM BKN039 BKN070 OVC110 13/01 A3046 RMK AO2 SLP313 T01280006
KPHL 220854Z 01012KT 10SM BKN040 BKN070 OVC110 12/M01 A3047 RMK AO2 SLP316 T01221006 51013
KPHL 220954Z 05013G18KT 10SM BKN044 BKN070 OVC110 12/01 A3047 RMK AO2 SLP319 T01170006
KPHL 221054Z 04012KT 10SM BKN044 BKN070 OVC110 11/02 A3049 RMK AO2 SLP323 T01110017
KPHL 221154Z 04011KT 10SM BKN034 BKN070 OVC110 11/02 A3049 RMK AO2 SLP324 70001 T01060022 10139 20106 51008